Terminal Aerodrome Forecast
Issued by NWS Quad Cities IA IL

Home | Current Version | Previous Version | Text Only | Print | Product List | Glossary On
Versions: 1 2 3 4 5 6 7 8 9 10 11 12 13 14 15 16 17 18 19 20 21 22 23 24 25 26 27 28 29
000
FTUS43 KDVN 231500 AAA
TAFDBQ
TAF AMD
KDBQ 231521Z 2315/2412 18010KT 6SM -SHRA BKN035
      TEMPO 2315/2316 2SM SHRA
     FM231900 20012KT P6SM BKN040
     FM240100 17004KT 5SM BR SCT040
     FM240800 16003KT 1SM BR SCT005=

USA.gov is the U.S. government's official web portal to all federal, state and local government web resources and services.